Terminal Aerodrome Forecast
Issued by NWS Louisville, KY

Home | Current Version | Previous Version | Text Only | Print | Product List | Glossary On
Versions: 1 2 3 4 5 6 7 8 9 10 11 12 13 14 15 16 17 18 19 20
311
FTUS43 KLMK 030708 AAA
TAFSDF
TAF AMD
KSDF 030708Z 0307/0412 30004KT P6SM BKN035
      TEMPO 0309/0312 4SM BR SCT015 BKN025
     FM031500 32005KT P6SM BKN025
     FM031900 31006KT P6SM BKN035
     FM040000 29005KT P6SM BKN070=

USA.gov is the U.S. government's official web portal to all federal, state and local government web resources and services.